Morningdale, Massachusetts
Current Conditions -  °F | °C
As of 3:54 PM on Saturday 22 Nov 2014 (Local Time) from KORH Reporting Station
Broken Clouds Broken Clouds  
Wind Chill: 27°   Ceiling: 9500
Heat Index: 36°   Visibility: 10mi
Dew Point:   Wind: 15mph
Humidity: 30%   Direction: 230°SW
Pressure: 30.12"   Gusts: NA
Location:  42.3502°N, 71.718°W
Report Text: KORH 222054Z 23013KT 10SM BKN095 02/M14 A3012 RMK AO2 SLP214 T00221139 56023
Loading
Personal Weather Stations






























Interactive Weather Map New forecast layout! Learn more

10-Day Weather Forecast

Advertisements
Track Severe Weather on mobile